Kitchings Mill, South Carolina
Current Conditions -  °F | °C
As of 12:55 PM on Saturday 22 Nov 2014 (Local Time) from KAIK Reporting Station
Clear Clear  
Wind Chill: 15°   Ceiling: Unl
Heat Index: 15°   Visibility: 10mi
Dew Point: -4°   Wind: 7mph
Humidity: 27%   Direction: 80°E
Pressure: 30.44"   Gusts: NA
Location:  33.5901°N, 81.3327°W
Report Text: KAIK 221755Z AUTO 08006KT 10SM CLR 15/M04 A3044 RMK AO2 PNO
Loading
Personal Weather Stations






























Interactive Weather Map New forecast layout! Learn more

10-Day Weather Forecast

Advertisements
Track Severe Weather on mobile